createdAt,value
2017-12-10T00:00:04.286Z,986.35
2017-12-10T00:01:04.315Z,986.36
2017-12-10T00:02:04.346Z,986.34
2017-12-10T00:03:04.375Z,986.34
2017-12-10T00:04:04.405Z,986.35
2017-12-10T00:05:04.440Z,986.30
2017-12-10T00:06:04.465Z,986.34
2017-12-10T00:07:04.493Z,986.32
2017-12-10T00:08:04.522Z,986.30
2017-12-10T00:09:04.554Z,986.26
2017-12-10T00:10:04.582Z,986.25
2017-12-10T00:11:04.614Z,986.22
2017-12-10T00:12:04.643Z,986.18
2017-12-10T00:13:04.673Z,986.17
2017-12-10T00:14:04.704Z,986.17
2017-12-10T00:15:04.744Z,986.20
2017-12-10T00:16:04.764Z,986.17
2017-12-10T00:17:04.791Z,986.13
2017-12-10T00:18:04.825Z,986.09
2017-12-10T00:19:04.849Z,986.11
2017-12-10T00:20:04.886Z,986.09
2017-12-10T00:21:04.916Z,986.08
2017-12-10T00:22:04.940Z,986.12
2017-12-10T00:23:04.969Z,986.07
2017-12-10T00:24:05.080Z,986.09
2017-12-10T00:25:05.071Z,986.03
2017-12-10T00:26:05.061Z,986.05
2017-12-10T00:27:05.092Z,986.07
2017-12-10T00:28:05.125Z,986.04
2017-12-10T00:29:05.151Z,986.09
2017-12-10T00:30:05.178Z,986.02
2017-12-10T00:31:05.207Z,985.96
2017-12-10T00:32:05.242Z,985.96
2017-12-10T00:33:05.340Z,986.00
2017-12-10T00:34:05.302Z,985.95
2017-12-10T00:35:05.336Z,985.95
2017-12-10T00:36:05.356Z,985.92
2017-12-10T00:37:05.387Z,985.87
2017-12-10T00:38:05.426Z,985.87
2017-12-10T00:39:05.458Z,985.83
2017-12-10T00:40:05.475Z,985.80
2017-12-10T00:41:05.508Z,985.80
2017-12-10T00:42:05.541Z,985.78
2017-12-10T00:43:05.566Z,985.75
2017-12-10T00:44:05.689Z,985.74
2017-12-10T00:45:05.628Z,985.69
2017-12-10T00:46:05.668Z,985.72
2017-12-10T00:47:05.687Z,985.65
2017-12-10T00:48:05.716Z,985.59
2017-12-10T00:49:05.743Z,985.58
2017-12-10T00:50:05.772Z,985.56
2017-12-10T00:51:05.802Z,985.57
2017-12-10T00:52:05.833Z,985.53
2017-12-10T00:53:05.863Z,985.49
2017-12-10T00:54:05.891Z,985.45
2017-12-10T00:55:05.924Z,985.46
2017-12-10T00:56:05.951Z,985.42
2017-12-10T00:57:05.981Z,985.48
2017-12-10T00:58:06.026Z,985.46
2017-12-10T00:59:06.040Z,985.45
2017-12-10T01:00:06.072Z,985.41
2017-12-10T01:01:06.105Z,985.40
2017-12-10T01:02:06.128Z,985.41
2017-12-10T01:03:06.160Z,985.34
2017-12-10T01:04:06.189Z,985.27
2017-12-10T01:05:06.217Z,985.30
2017-12-10T01:06:06.248Z,985.29
2017-12-10T01:07:06.275Z,985.24
2017-12-10T01:08:06.304Z,985.23
2017-12-10T01:09:06.341Z,985.26
2017-12-10T01:10:06.367Z,985.24
2017-12-10T01:11:06.392Z,985.23
2017-12-10T01:12:06.430Z,985.21
2017-12-10T01:13:06.453Z,985.15
2017-12-10T01:14:06.486Z,985.15
2017-12-10T01:15:06.515Z,985.09
2017-12-10T01:16:06.546Z,985.12
2017-12-10T01:17:06.581Z,985.13
2017-12-10T01:18:06.601Z,985.05
2017-12-10T01:19:06.629Z,985.06
2017-12-10T01:20:06.658Z,985.06
2017-12-10T01:21:06.694Z,985.00
2017-12-10T01:22:06.735Z,984.96
2017-12-10T01:23:06.746Z,984.96
2017-12-10T01:24:06.788Z,984.91
2017-12-10T01:25:06.812Z,984.94
2017-12-10T01:26:06.836Z,984.88
2017-12-10T01:27:06.867Z,984.88
2017-12-10T01:28:06.897Z,984.95
2017-12-10T01:29:06.927Z,984.88
2017-12-10T01:30:06.955Z,984.87
2017-12-10T01:31:06.985Z,984.88
2017-12-10T01:32:07.011Z,984.84
2017-12-10T01:33:07.043Z,984.82
2017-12-10T01:34:07.077Z,984.82
2017-12-10T01:35:07.173Z,984.79
2017-12-10T01:36:07.140Z,984.79
2017-12-10T01:37:07.159Z,984.78
2017-12-10T01:38:07.192Z,984.74
2017-12-10T01:39:07.220Z,984.68
2017-12-10T01:40:07.254Z,984.70
2017-12-10T01:41:07.278Z,984.71
2017-12-10T01:42:07.309Z,984.74
2017-12-10T01:43:07.335Z,984.71
2017-12-10T01:44:07.506Z,984.69
2017-12-10T01:45:07.395Z,984.68
2017-12-10T01:46:07.438Z,984.69
2017-12-10T01:47:07.455Z,984.64
2017-12-10T01:48:07.481Z,984.63
2017-12-10T01:49:07.522Z,984.58
2017-12-10T01:50:07.546Z,984.55
2017-12-10T01:51:07.579Z,984.56
2017-12-10T01:52:07.605Z,984.53
2017-12-10T01:53:07.634Z,984.51
2017-12-10T01:54:07.663Z,984.52
2017-12-10T01:55:07.697Z,984.46
2017-12-10T01:56:07.728Z,984.44
2017-12-10T01:57:07.805Z,984.47
2017-12-10T01:58:07.785Z,984.44
2017-12-10T01:59:07.809Z,984.44
2017-12-10T02:00:07.837Z,984.44
2017-12-10T02:01:07.864Z,984.45
2017-12-10T02:02:07.898Z,984.41
2017-12-10T02:03:07.924Z,984.35
2017-12-10T02:04:07.954Z,984.33
2017-12-10T02:05:07.985Z,984.30
2017-12-10T02:06:08.015Z,984.24
2017-12-10T02:07:08.045Z,984.25
2017-12-10T02:08:08.073Z,984.27
2017-12-10T02:09:08.106Z,984.18
2017-12-10T02:10:08.134Z,984.17
2017-12-10T02:11:08.159Z,984.11
2017-12-10T02:12:08.190Z,984.10
2017-12-10T02:13:08.220Z,984.10
2017-12-10T02:14:08.251Z,984.04
2017-12-10T02:15:08.281Z,983.99
2017-12-10T02:16:08.311Z,984.01
2017-12-10T02:17:08.341Z,983.91
2017-12-10T02:18:08.371Z,983.91
2017-12-10T02:19:08.402Z,983.98
2017-12-10T02:20:08.430Z,983.94
2017-12-10T02:21:08.458Z,983.93
2017-12-10T02:22:08.492Z,983.90
2017-12-10T02:23:08.517Z,983.85
2017-12-10T02:24:08.552Z,983.81
2017-12-10T02:25:08.577Z,983.79
2017-12-10T02:26:08.606Z,983.78
2017-12-10T02:27:08.637Z,983.78
2017-12-10T02:28:08.680Z,983.79
2017-12-10T02:29:08.697Z,983.75
2017-12-10T02:30:08.728Z,983.74
2017-12-10T02:31:08.757Z,983.74
2017-12-10T02:32:08.794Z,983.70
2017-12-10T02:33:08.818Z,983.67
2017-12-10T02:34:08.870Z,983.62
2017-12-10T02:35:08.884Z,983.57
2017-12-10T02:36:08.907Z,983.64
2017-12-10T02:37:08.945Z,983.54
2017-12-10T02:38:08.965Z,983.55
2017-12-10T02:39:08.992Z,983.52
2017-12-10T02:40:09.032Z,983.47
2017-12-10T02:41:09.063Z,983.52
2017-12-10T02:42:09.083Z,983.54
2017-12-10T02:43:09.111Z,983.54
2017-12-10T02:44:09.142Z,983.53
2017-12-10T02:45:09.171Z,983.51
2017-12-10T02:46:09.216Z,983.47
2017-12-10T02:47:09.232Z,983.42
2017-12-10T02:48:09.265Z,983.40
2017-12-10T02:49:09.288Z,983.40
2017-12-10T02:50:09.318Z,983.46
2017-12-10T02:51:09.347Z,983.38
2017-12-10T02:52:09.379Z,983.37
2017-12-10T02:53:09.410Z,983.37
2017-12-10T02:54:09.441Z,983.34
2017-12-10T02:55:09.515Z,983.33
2017-12-10T02:56:09.493Z,983.26
2017-12-10T02:57:09.535Z,983.23
2017-12-10T02:58:09.553Z,983.21
2017-12-10T02:59:09.585Z,983.19
2017-12-10T03:00:09.615Z,983.19
2017-12-10T03:01:09.646Z,983.12
2017-12-10T03:02:09.682Z,983.08
2017-12-10T03:03:09.705Z,983.16
2017-12-10T03:04:09.733Z,983.10
2017-12-10T03:05:09.764Z,983.08
2017-12-10T03:06:09.793Z,983.08
2017-12-10T03:07:09.824Z,983.06
2017-12-10T03:08:09.853Z,983.08
2017-12-10T03:09:09.881Z,983.06
2017-12-10T03:10:09.912Z,982.98
2017-12-10T03:11:09.941Z,982.99
2017-12-10T03:12:09.971Z,982.98
2017-12-10T03:13:10.003Z,982.97
2017-12-10T03:14:10.031Z,982.93
2017-12-10T03:15:10.057Z,982.90
2017-12-10T03:16:10.091Z,982.98
2017-12-10T03:17:10.122Z,982.91
2017-12-10T03:18:10.151Z,982.94
2017-12-10T03:19:10.177Z,983.03
2017-12-10T03:20:10.205Z,982.91
2017-12-10T03:21:10.233Z,982.89
2017-12-10T03:22:10.267Z,982.88
2017-12-10T03:23:10.293Z,982.86
2017-12-10T03:24:10.326Z,982.88
2017-12-10T03:25:10.351Z,982.82
2017-12-10T03:26:10.388Z,982.82
2017-12-10T03:27:10.416Z,982.83
2017-12-10T03:28:10.457Z,982.79
2017-12-10T03:29:10.478Z,982.75
2017-12-10T03:30:10.511Z,982.73
2017-12-10T03:31:10.534Z,982.70
2017-12-10T03:32:10.558Z,982.70
2017-12-10T03:33:10.590Z,982.70
2017-12-10T03:34:10.622Z,982.63
2017-12-10T03:35:10.646Z,982.62
2017-12-10T03:36:10.678Z,982.58
2017-12-10T03:37:10.705Z,982.60
2017-12-10T03:38:10.744Z,982.54
2017-12-10T03:39:10.765Z,982.54
2017-12-10T03:40:10.796Z,982.49
2017-12-10T03:41:10.824Z,982.48
2017-12-10T03:42:10.853Z,982.45
2017-12-10T03:43:10.882Z,982.46
2017-12-10T03:44:10.915Z,982.43
2017-12-10T03:45:10.946Z,982.39
2017-12-10T03:46:10.971Z,982.38
2017-12-10T03:47:10.997Z,982.40
2017-12-10T03:48:11.040Z,982.38
2017-12-10T03:49:11.064Z,982.33
2017-12-10T03:50:11.088Z,982.29
2017-12-10T03:51:11.122Z,982.33
2017-12-10T03:52:11.151Z,982.29
2017-12-10T03:53:11.182Z,982.28
2017-12-10T03:54:11.205Z,982.33
2017-12-10T03:55:11.237Z,982.30
2017-12-10T03:56:11.272Z,982.24
2017-12-10T03:57:11.300Z,982.25
2017-12-10T03:58:11.320Z,982.26
2017-12-10T03:59:11.370Z,982.24
2017-12-10T04:00:11.387Z,982.23
2017-12-10T04:01:11.413Z,982.18
2017-12-10T04:02:11.440Z,982.15
2017-12-10T04:03:11.466Z,982.16
2017-12-10T04:04:11.496Z,982.13
2017-12-10T04:05:11.525Z,982.16
2017-12-10T04:06:11.554Z,982.14
2017-12-10T04:07:11.582Z,982.16
2017-12-10T04:08:11.713Z,982.18
2017-12-10T04:09:11.643Z,982.12
2017-12-10T04:10:11.707Z,982.07
2017-12-10T04:11:11.700Z,982.04
2017-12-10T04:12:11.731Z,981.98
2017-12-10T04:13:11.759Z,981.94
2017-12-10T04:14:11.789Z,981.91
2017-12-10T04:15:11.817Z,981.90
2017-12-10T04:16:11.847Z,981.84
2017-12-10T04:17:11.875Z,981.82
2017-12-10T04:18:11.908Z,981.78
2017-12-10T04:19:11.938Z,981.73
2017-12-10T04:20:11.966Z,981.69
2017-12-10T04:21:11.993Z,981.69
2017-12-10T04:22:12.024Z,981.58
2017-12-10T04:23:12.054Z,981.61
2017-12-10T04:24:12.083Z,981.62
2017-12-10T04:25:12.109Z,981.56
2017-12-10T04:26:12.139Z,981.57
2017-12-10T04:27:12.169Z,981.56
2017-12-10T04:28:12.212Z,981.59
2017-12-10T04:29:12.229Z,981.55
2017-12-10T04:30:12.260Z,981.55
2017-12-10T04:31:12.283Z,981.54
2017-12-10T04:32:12.314Z,981.52
2017-12-10T04:33:12.342Z,981.42
2017-12-10T04:34:12.372Z,981.36
2017-12-10T04:35:12.399Z,981.31
2017-12-10T04:36:12.432Z,981.31
2017-12-10T04:37:12.459Z,981.28
2017-12-10T04:38:12.490Z,981.25
2017-12-10T04:39:12.519Z,981.24
2017-12-10T04:40:12.549Z,981.23
2017-12-10T04:41:12.581Z,981.22
2017-12-10T04:42:12.605Z,981.21
2017-12-10T04:43:12.632Z,981.20
2017-12-10T04:44:12.663Z,981.22
2017-12-10T04:45:12.693Z,981.16
2017-12-10T04:46:12.721Z,981.16
2017-12-10T04:47:12.750Z,981.14
2017-12-10T04:48:12.824Z,981.07
2017-12-10T04:49:12.819Z,981.08
2017-12-10T04:50:12.842Z,981.06
2017-12-10T04:51:12.865Z,981.04
2017-12-10T04:52:12.894Z,981.04
2017-12-10T04:53:12.924Z,981.00
2017-12-10T04:54:12.953Z,980.98
2017-12-10T04:55:12.982Z,980.96
2017-12-10T04:56:13.009Z,981.00
2017-12-10T04:57:13.040Z,980.95
2017-12-10T04:58:13.072Z,980.86
2017-12-10T04:59:13.107Z,980.86
2017-12-10T05:00:13.131Z,980.78
2017-12-10T05:01:13.159Z,980.78
2017-12-10T05:02:13.191Z,980.72
2017-12-10T05:03:13.218Z,980.71
2017-12-10T05:04:13.242Z,980.68
2017-12-10T05:05:13.274Z,980.67
2017-12-10T05:06:13.302Z,980.62
2017-12-10T05:07:13.330Z,980.56
2017-12-10T05:08:13.362Z,980.61
2017-12-10T05:09:13.388Z,980.59
2017-12-10T05:10:13.430Z,980.62
2017-12-10T05:11:13.448Z,980.68
2017-12-10T05:12:13.487Z,980.70
2017-12-10T05:13:13.507Z,980.67
2017-12-10T05:14:13.545Z,980.63
2017-12-10T05:15:13.565Z,980.61
2017-12-10T05:16:13.597Z,980.59
2017-12-10T05:17:13.624Z,980.59
2017-12-10T05:18:13.657Z,980.55
2017-12-10T05:19:13.693Z,980.49
2017-12-10T05:20:13.708Z,980.48
2017-12-10T05:21:13.749Z,980.38
2017-12-10T05:22:13.768Z,980.30
2017-12-10T05:23:13.798Z,980.31
2017-12-10T05:24:13.823Z,980.28
2017-12-10T05:25:13.863Z,980.28
2017-12-10T05:26:13.884Z,980.22
2017-12-10T05:27:13.915Z,980.19
2017-12-10T05:28:13.939Z,980.14
2017-12-10T05:29:13.973Z,980.12
2017-12-10T05:30:13.998Z,980.03
2017-12-10T05:31:14.026Z,980.10
2017-12-10T05:32:14.056Z,980.07
2017-12-10T05:33:14.090Z,980.02
2017-12-10T05:34:14.117Z,979.98
2017-12-10T05:35:14.143Z,979.93
2017-12-10T05:36:14.173Z,979.93
2017-12-10T05:37:14.204Z,979.94
2017-12-10T05:38:14.234Z,979.93
2017-12-10T05:39:14.263Z,979.95
2017-12-10T05:40:14.290Z,979.92
2017-12-10T05:41:14.319Z,979.90
2017-12-10T05:42:14.350Z,979.89
2017-12-10T05:43:14.377Z,979.83
2017-12-10T05:44:14.408Z,979.86
2017-12-10T05:45:14.438Z,979.80
2017-12-10T05:46:14.466Z,979.72
2017-12-10T05:47:14.495Z,979.68
2017-12-10T05:48:14.525Z,979.60
2017-12-10T05:49:14.550Z,979.58
2017-12-10T05:50:14.593Z,979.59
2017-12-10T05:51:14.610Z,979.61
2017-12-10T05:52:14.642Z,979.61
2017-12-10T05:53:14.672Z,979.56
2017-12-10T05:54:14.702Z,979.57
2017-12-10T05:55:14.748Z,979.52
2017-12-10T05:56:14.763Z,979.46
2017-12-10T05:57:14.786Z,979.41
2017-12-10T05:58:14.818Z,979.45
2017-12-10T05:59:14.841Z,979.39
2017-12-10T06:00:14.872Z,979.32
2017-12-10T06:01:14.913Z,979.31
2017-12-10T06:02:14.932Z,979.32
2017-12-10T06:03:14.963Z,979.32
2017-12-10T06:04:14.989Z,979.29
2017-12-10T06:05:15.020Z,979.23
2017-12-10T06:06:15.049Z,979.23
2017-12-10T06:07:15.075Z,979.13
2017-12-10T06:08:15.108Z,979.12
2017-12-10T06:09:15.133Z,979.09
2017-12-10T06:10:15.260Z,979.05
2017-12-10T06:11:15.193Z,979.08
2017-12-10T06:12:15.230Z,979.04
2017-12-10T06:13:15.256Z,979.03
2017-12-10T06:14:15.279Z,979.03
2017-12-10T06:15:15.310Z,978.94
2017-12-10T06:16:15.339Z,978.91
2017-12-10T06:17:15.368Z,978.87
2017-12-10T06:18:15.397Z,978.84
2017-12-10T06:19:15.427Z,978.88
2017-12-10T06:20:15.458Z,978.90
2017-12-10T06:21:15.595Z,978.87
2017-12-10T06:22:15.523Z,978.82
2017-12-10T06:23:15.548Z,978.77
2017-12-10T06:24:15.573Z,978.74
2017-12-10T06:25:15.604Z,978.72
2017-12-10T06:26:15.629Z,978.71
2017-12-10T06:27:15.659Z,978.63
2017-12-10T06:28:15.689Z,978.66
2017-12-10T06:29:15.718Z,978.59
2017-12-10T06:30:15.748Z,978.57
2017-12-10T06:31:15.778Z,978.53
2017-12-10T06:32:15.817Z,978.50
2017-12-10T06:33:15.835Z,978.42
2017-12-10T06:34:15.865Z,978.34
2017-12-10T06:35:15.892Z,978.35
2017-12-10T06:36:15.922Z,978.36
2017-12-10T06:37:15.960Z,978.28
2017-12-10T06:38:15.980Z,978.28
2017-12-10T06:39:16.009Z,978.22
2017-12-10T06:40:16.039Z,978.23
2017-12-10T06:41:16.069Z,978.31
2017-12-10T06:42:16.101Z,978.26
2017-12-10T06:43:16.127Z,978.18
2017-12-10T06:44:16.161Z,978.13
2017-12-10T06:45:16.185Z,978.10
2017-12-10T06:46:16.213Z,977.99
2017-12-10T06:47:16.242Z,978.01
2017-12-10T06:48:16.283Z,977.96
2017-12-10T06:49:16.303Z,977.91
2017-12-10T06:50:16.332Z,977.89
2017-12-10T06:51:16.362Z,977.81
2017-12-10T06:52:16.391Z,977.77
2017-12-10T06:53:16.421Z,977.73
2017-12-10T06:54:16.450Z,977.66
2017-12-10T06:55:16.483Z,977.59
2017-12-10T06:56:16.504Z,977.56
2017-12-10T06:57:16.535Z,977.54
2017-12-10T06:58:16.566Z,977.54
2017-12-10T06:59:16.591Z,977.49
2017-12-10T07:00:16.622Z,977.51
2017-12-10T07:01:16.651Z,977.45
2017-12-10T07:02:16.681Z,977.48
2017-12-10T07:03:16.711Z,977.39
2017-12-10T07:04:16.737Z,977.36
2017-12-10T07:05:16.772Z,977.31
2017-12-10T07:06:16.796Z,977.31
2017-12-10T07:07:16.825Z,977.31
2017-12-10T07:08:16.857Z,977.27
2017-12-10T07:09:16.888Z,977.26
2017-12-10T07:10:16.919Z,977.23
2017-12-10T07:11:16.943Z,977.19
2017-12-10T07:12:16.985Z,977.11
2017-12-10T07:13:17.010Z,977.17
2017-12-10T07:14:17.083Z,977.19
2017-12-10T07:15:17.057Z,977.20
2017-12-10T07:16:17.095Z,977.17
2017-12-10T07:17:17.119Z,977.19
2017-12-10T07:18:17.146Z,977.13
2017-12-10T07:19:17.176Z,977.11
2017-12-10T07:20:17.206Z,977.11
2017-12-10T07:21:17.236Z,977.08
2017-12-10T07:22:17.265Z,977.07
2017-12-10T07:23:17.317Z,977.01
2017-12-10T07:24:17.325Z,976.99
2017-12-10T07:25:17.355Z,977.00
2017-12-10T07:26:17.386Z,976.91
2017-12-10T07:27:17.408Z,976.86
2017-12-10T07:28:17.453Z,976.90
2017-12-10T07:29:17.471Z,976.86
2017-12-10T07:30:17.502Z,976.85
2017-12-10T07:31:17.537Z,976.80
2017-12-10T07:32:17.557Z,976.80
2017-12-10T07:33:17.587Z,976.85
2017-12-10T07:34:17.659Z,976.75
2017-12-10T07:35:17.644Z,976.80
2017-12-10T07:36:17.672Z,976.78
2017-12-10T07:37:17.706Z,976.79
2017-12-10T07:38:17.734Z,976.66
2017-12-10T07:39:17.766Z,976.68
2017-12-10T07:40:17.791Z,976.67
2017-12-10T07:41:17.820Z,976.63
2017-12-10T07:42:17.848Z,976.62
2017-12-10T07:43:17.877Z,976.67
2017-12-10T07:44:17.907Z,976.65
2017-12-10T07:45:17.938Z,976.68
2017-12-10T07:46:17.967Z,976.60
2017-12-10T07:47:17.999Z,976.59
2017-12-10T07:48:18.025Z,976.60
2017-12-10T07:49:18.055Z,976.56
2017-12-10T07:50:18.086Z,976.56
2017-12-10T07:51:18.112Z,976.59
2017-12-10T07:52:18.152Z,976.56
2017-12-10T07:53:18.171Z,976.51
2017-12-10T07:54:18.207Z,976.52
2017-12-10T07:55:18.230Z,976.50
2017-12-10T07:56:18.262Z,976.51
2017-12-10T07:57:18.288Z,976.52
2017-12-10T07:58:18.320Z,976.48
2017-12-10T07:59:18.347Z,976.37
2017-12-10T08:00:18.377Z,976.35
2017-12-10T08:01:18.407Z,976.34
2017-12-10T08:02:18.437Z,976.31
2017-12-10T08:03:18.466Z,976.27
2017-12-10T08:04:18.499Z,976.33
2017-12-10T08:05:18.527Z,976.26
2017-12-10T08:06:18.557Z,976.21
2017-12-10T08:07:18.584Z,976.19
2017-12-10T08:08:18.611Z,976.10
2017-12-10T08:09:18.643Z,976.12
2017-12-10T08:10:18.676Z,976.14
2017-12-10T08:11:18.700Z,976.05
2017-12-10T08:12:18.729Z,976.05
2017-12-10T08:13:18.768Z,976.03
2017-12-10T08:14:18.801Z,975.97
2017-12-10T08:15:18.818Z,975.94
2017-12-10T08:16:18.870Z,975.84
2017-12-10T08:17:18.879Z,975.79
2017-12-10T08:18:18.912Z,975.82
2017-12-10T08:19:18.939Z,975.79
2017-12-10T08:20:18.964Z,975.72
2017-12-10T08:21:19.000Z,975.67
2017-12-10T08:22:19.025Z,975.55
2017-12-10T08:23:19.054Z,975.57
2017-12-10T08:24:19.081Z,975.56
2017-12-10T08:25:19.165Z,975.51
2017-12-10T08:26:19.141Z,975.41
2017-12-10T08:27:19.174Z,975.39
2017-12-10T08:28:19.202Z,975.30
2017-12-10T08:29:19.230Z,975.28
2017-12-10T08:30:19.259Z,975.23
2017-12-10T08:31:19.289Z,975.20
2017-12-10T08:32:19.320Z,975.21
2017-12-10T08:33:19.350Z,975.15
2017-12-10T08:34:19.414Z,975.13
2017-12-10T08:35:19.415Z,975.12
2017-12-10T08:36:19.447Z,975.07
2017-12-10T08:37:19.471Z,975.04
2017-12-10T08:38:19.500Z,975.03
2017-12-10T08:39:19.526Z,975.01
2017-12-10T08:40:19.556Z,975.03
2017-12-10T08:41:19.591Z,975.01
2017-12-10T08:42:19.616Z,975.04
2017-12-10T08:43:19.648Z,975.06
2017-12-10T08:44:19.680Z,975.09
2017-12-10T08:45:19.808Z,974.99
2017-12-10T08:46:19.746Z,974.95
2017-12-10T08:47:19.765Z,974.95
2017-12-10T08:48:19.794Z,974.82
2017-12-10T08:49:19.838Z,974.80
2017-12-10T08:50:19.855Z,974.78
2017-12-10T08:51:19.882Z,974.76
2017-12-10T08:52:19.963Z,974.69
2017-12-10T08:53:19.942Z,974.66
2017-12-10T08:54:19.971Z,974.66
2017-12-10T08:55:20.011Z,974.63
2017-12-10T08:56:20.032Z,974.65
2017-12-10T08:57:20.062Z,974.63
2017-12-10T08:58:20.093Z,974.61
2017-12-10T08:59:20.123Z,974.63
2017-12-10T09:00:20.152Z,974.55
2017-12-10T09:01:20.187Z,974.50
2017-12-10T09:02:20.208Z,974.46
2017-12-10T09:03:20.237Z,974.39
2017-12-10T09:04:20.272Z,974.47
2017-12-10T09:05:20.306Z,974.39
2017-12-10T09:06:20.347Z,974.39
2017-12-10T09:07:20.365Z,974.34
2017-12-10T09:08:20.397Z,974.29
2017-12-10T09:09:20.418Z,974.26
2017-12-10T09:10:20.452Z,974.21
2017-12-10T09:11:20.476Z,974.17
2017-12-10T09:12:20.505Z,974.12
2017-12-10T09:13:20.536Z,974.06
2017-12-10T09:14:20.577Z,974.07
2017-12-10T09:15:20.597Z,974.03
2017-12-10T09:16:20.633Z,974.04
2017-12-10T09:17:20.655Z,973.95
2017-12-10T09:18:20.689Z,973.99
2017-12-10T09:19:20.717Z,974.03
2017-12-10T09:20:20.744Z,973.98
2017-12-10T09:21:20.777Z,973.97
2017-12-10T09:22:20.808Z,973.94
2017-12-10T09:23:20.834Z,973.90
2017-12-10T09:24:20.867Z,973.85
2017-12-10T09:25:20.942Z,973.82
2017-12-10T09:26:20.927Z,973.76
2017-12-10T09:27:20.960Z,973.70
2017-12-10T09:28:20.993Z,973.72
2017-12-10T09:29:21.014Z,973.71
2017-12-10T09:30:21.052Z,973.59
2017-12-10T09:31:21.076Z,973.52
2017-12-10T09:32:21.107Z,973.47
2017-12-10T09:33:21.137Z,973.43
2017-12-10T09:35:21.201Z,973.34
2017-12-10T09:36:21.285Z,973.35
2017-12-10T09:37:21.256Z,973.29
2017-12-10T09:38:21.288Z,973.17
2017-12-10T09:39:21.315Z,973.12
2017-12-10T09:40:21.345Z,973.12
2017-12-10T09:41:21.377Z,973.02
2017-12-10T09:42:21.406Z,973.00
2017-12-10T09:43:21.437Z,973.02
2017-12-10T09:44:21.468Z,972.94
2017-12-10T09:45:21.509Z,972.92
2017-12-10T09:46:21.529Z,972.82
2017-12-10T09:47:21.560Z,972.81
2017-12-10T09:48:21.632Z,972.73
2017-12-10T09:49:21.618Z,972.62
2017-12-10T09:50:21.648Z,972.57
2017-12-10T09:51:21.681Z,972.57
2017-12-10T09:52:21.708Z,972.54
2017-12-10T09:53:21.738Z,972.46
2017-12-10T09:54:21.769Z,972.47
2017-12-10T09:55:21.797Z,972.43
2017-12-10T09:56:21.827Z,972.41
2017-12-10T09:57:21.862Z,972.37
2017-12-10T09:58:21.889Z,972.30
2017-12-10T09:59:21.919Z,972.22
2017-12-10T10:00:21.951Z,972.28
2017-12-10T10:01:21.983Z,972.22
2017-12-10T10:02:22.010Z,972.10
2017-12-10T10:03:22.040Z,972.08
2017-12-10T10:04:22.074Z,971.98
2017-12-10T10:05:22.103Z,971.91
2017-12-10T10:06:22.130Z,971.93
2017-12-10T10:07:22.167Z,971.88
2017-12-10T10:08:22.192Z,971.78
2017-12-10T10:09:22.224Z,971.70
2017-12-10T10:10:22.257Z,971.61
2017-12-10T10:11:22.280Z,971.56
2017-12-10T10:12:22.319Z,971.50
2017-12-10T10:13:22.350Z,971.41
2017-12-10T10:14:22.383Z,971.32
2017-12-10T10:15:22.403Z,971.29
2017-12-10T10:16:22.433Z,971.25
2017-12-10T10:17:22.469Z,971.21
2017-12-10T10:18:22.506Z,971.13
2017-12-10T10:19:22.536Z,971.05
2017-12-10T10:20:22.559Z,971.00
2017-12-10T10:21:22.590Z,970.97
2017-12-10T10:22:22.618Z,970.93
2017-12-10T10:23:22.658Z,970.93
2017-12-10T10:24:22.716Z,970.93
2017-12-10T10:25:22.718Z,970.87
2017-12-10T10:26:22.740Z,970.88
2017-12-10T10:27:22.774Z,970.84
2017-12-10T10:28:22.815Z,970.79
2017-12-10T10:29:22.830Z,970.75
2017-12-10T10:30:22.870Z,970.70
2017-12-10T10:31:22.893Z,970.60
2017-12-10T10:32:22.920Z,970.58
2017-12-10T10:33:22.954Z,970.55
2017-12-10T10:34:22.979Z,970.49
2017-12-10T10:35:23.010Z,970.46
2017-12-10T10:36:23.055Z,970.34
2017-12-10T10:37:23.072Z,970.29
2017-12-10T10:38:23.114Z,970.34
2017-12-10T10:39:23.136Z,970.29
2017-12-10T10:40:23.164Z,970.22
2017-12-10T10:41:23.197Z,970.19
2017-12-10T10:42:23.228Z,970.10
2017-12-10T10:43:23.257Z,970.09
2017-12-10T10:44:23.286Z,970.00
2017-12-10T10:45:23.387Z,969.89
2017-12-10T10:46:23.346Z,969.90
2017-12-10T10:47:23.483Z,969.87
2017-12-10T10:48:23.406Z,969.71
2017-12-10T10:49:23.436Z,969.61
2017-12-10T10:50:23.468Z,969.55
2017-12-10T10:51:23.508Z,969.49
2017-12-10T10:52:23.529Z,969.42
2017-12-10T10:53:23.567Z,969.36
2017-12-10T10:54:23.593Z,969.28
2017-12-10T10:55:23.617Z,969.25
2017-12-10T10:56:23.659Z,969.16
2017-12-10T10:57:23.679Z,969.15
2017-12-10T10:58:23.713Z,969.07
2017-12-10T10:59:23.744Z,968.99
2017-12-10T11:00:23.776Z,968.98
2017-12-10T11:01:23.803Z,968.94
2017-12-10T11:02:23.833Z,968.88
2017-12-10T11:03:23.864Z,968.78
2017-12-10T11:04:23.894Z,968.72
2017-12-10T11:05:23.932Z,968.63
2017-12-10T11:06:23.955Z,968.56
2017-12-10T11:07:23.993Z,968.55
2017-12-10T11:08:24.013Z,968.45
2017-12-10T11:09:24.046Z,968.41
2017-12-10T11:10:24.083Z,968.37
2017-12-10T11:11:24.106Z,968.41
2017-12-10T11:12:24.137Z,968.40
2017-12-10T11:13:24.167Z,968.33
2017-12-10T11:14:24.197Z,968.28
2017-12-10T11:15:24.227Z,968.15
2017-12-10T11:16:24.266Z,968.13
2017-12-10T11:17:24.294Z,968.13
2017-12-10T11:18:24.317Z,968.09
2017-12-10T11:19:24.354Z,968.03
2017-12-10T11:20:24.379Z,967.95
2017-12-10T11:21:24.408Z,967.83
2017-12-10T11:22:24.454Z,967.79
2017-12-10T11:23:24.470Z,967.71
2017-12-10T11:24:24.498Z,967.69
2017-12-10T11:25:24.536Z,967.68
2017-12-10T11:26:24.561Z,967.64
2017-12-10T11:27:24.593Z,967.60
2017-12-10T11:28:24.628Z,967.61
2017-12-10T11:29:24.651Z,967.55
2017-12-10T11:30:24.687Z,967.53
2017-12-10T11:31:24.711Z,967.50
2017-12-10T11:32:24.765Z,967.45
2017-12-10T11:33:24.777Z,967.42
2017-12-10T11:34:24.807Z,967.36
2017-12-10T11:35:24.837Z,967.33
2017-12-10T11:36:24.884Z,967.28
2017-12-10T11:37:24.895Z,967.22
2017-12-10T11:38:24.927Z,967.18
2017-12-10T11:39:24.953Z,967.05
2017-12-10T11:40:24.988Z,966.99
2017-12-10T11:41:25.017Z,966.94
2017-12-10T11:42:25.047Z,966.91
2017-12-10T11:43:25.072Z,966.89
2017-12-10T11:44:25.103Z,966.88
2017-12-10T11:45:25.250Z,966.85
2017-12-10T11:46:25.168Z,966.77
2017-12-10T11:47:25.250Z,966.69
2017-12-10T11:48:25.227Z,966.65
2017-12-10T11:49:25.258Z,966.64
2017-12-10T11:50:25.288Z,966.64
2017-12-10T11:51:25.314Z,966.61
2017-12-10T11:52:25.349Z,966.54
2017-12-10T11:53:25.378Z,966.49
2017-12-10T11:54:25.412Z,966.49
2017-12-10T11:55:25.436Z,966.45
2017-12-10T11:56:25.486Z,966.43
2017-12-10T11:57:25.499Z,966.36
2017-12-10T11:58:25.527Z,966.33
2017-12-10T11:59:25.555Z,966.28
2017-12-10T12:00:25.583Z,966.27
2017-12-10T12:01:25.618Z,966.15
2017-12-10T12:02:25.651Z,966.09
2017-12-10T12:03:25.676Z,966.05
2017-12-10T12:04:25.705Z,965.93
2017-12-10T12:05:25.731Z,965.83
2017-12-10T12:06:25.763Z,965.72
2017-12-10T12:07:25.864Z,965.61
2017-12-10T12:08:25.825Z,965.54
2017-12-10T12:09:25.854Z,965.39
2017-12-10T12:10:25.884Z,965.38
2017-12-10T12:11:25.911Z,965.35
2017-12-10T12:12:25.940Z,965.30
2017-12-10T12:13:25.990Z,965.25
2017-12-10T12:14:25.999Z,965.21
2017-12-10T12:15:26.030Z,965.12
2017-12-10T12:16:26.059Z,965.08
2017-12-10T12:17:26.090Z,965.05
2017-12-10T12:18:26.121Z,964.96
2017-12-10T12:19:26.154Z,964.92
2017-12-10T12:20:26.174Z,964.81
2017-12-10T12:21:26.213Z,964.78
2017-12-10T12:22:26.248Z,964.81
2017-12-10T12:23:26.266Z,964.80
2017-12-10T12:24:26.304Z,964.75
2017-12-10T12:25:26.325Z,964.77
2017-12-10T12:26:26.360Z,964.72
2017-12-10T12:27:26.385Z,964.71
2017-12-10T12:28:26.417Z,964.64
2017-12-10T12:29:26.443Z,964.55